Arnett, Oklahoma
Current Conditions -  °F | °C
As of 5:53 AM on Saturday 01 Nov 2014 (Local Time) from KGAG Reporting Station
Clear Clear  
Wind Chill: 28°   Ceiling: Unl
Heat Index: 36°   Visibility: 10mi
Dew Point: 20°   Wind: 12mph
Humidity: 52%   Direction: 160°SSE
Pressure: 30.32"   Gusts: NA
Location:  36.14°N, 99.77°W
Report Text: KGAG 011053Z AUTO 16010KT 10SM CLR 02/M07 A3032 RMK AO2 SLP271 T00221067
Loading
Personal Weather Stations






























Interactive Weather Map
Tropical Storm Tracking
New forecast layout! Learn more

10-Day Weather Forecast

Advertisements
Track Severe Weather on mobile